sensor_id;sensor_type;location;lat;lon;timestamp;P1;durP1;ratioP1;P2;durP2;ratioP2
10154;SDS011;5118;48.570;7.916;2023-06-22T00:01:02;9.15;;;8.18;;
10154;SDS011;5118;48.570;7.916;2023-06-22T00:03:31;8.65;;;7.90;;
10154;SDS011;5118;48.570;7.916;2023-06-22T00:05:59;9.50;;;8.55;;
10154;SDS011;5118;48.570;7.916;2023-06-22T00:08:28;8.75;;;7.75;;
10154;SDS011;5118;48.570;7.916;2023-06-22T00:10:56;10.15;;;9.15;;
10154;SDS011;5118;48.570;7.916;2023-06-22T00:13:26;10.20;;;8.63;;
10154;SDS011;5118;48.570;7.916;2023-06-22T00:15:55;10.77;;;9.00;;
10154;SDS011;5118;48.570;7.916;2023-06-22T00:18:24;10.15;;;9.13;;
10154;SDS011;5118;48.570;7.916;2023-06-22T00:20:54;10.60;;;9.52;;
10154;SDS011;5118;48.570;7.916;2023-06-22T00:23:25;12.88;;;9.95;;
10154;SDS011;5118;48.570;7.916;2023-06-22T00:25:54;10.43;;;9.35;;
10154;SDS011;5118;48.570;7.916;2023-06-22T00:28:22;10.70;;;9.23;;
10154;SDS011;5118;48.570;7.916;2023-06-22T00:30:52;10.70;;;9.60;;
10154;SDS011;5118;48.570;7.916;2023-06-22T00:33:20;10.25;;;8.75;;
10154;SDS011;5118;48.570;7.916;2023-06-22T00:35:49;9.25;;;8.35;;
10154;SDS011;5118;48.570;7.916;2023-06-22T00:38:19;10.60;;;9.50;;
10154;SDS011;5118;48.570;7.916;2023-06-22T00:40:47;10.13;;;9.20;;
10154;SDS011;5118;48.570;7.916;2023-06-22T00:43:16;9.80;;;8.70;;
10154;SDS011;5118;48.570;7.916;2023-06-22T00:45:44;9.90;;;9.00;;
10154;SDS011;5118;48.570;7.916;2023-06-22T00:48:14;9.43;;;8.52;;
10154;SDS011;5118;48.570;7.916;2023-06-22T00:50:43;9.70;;;8.80;;
10154;SDS011;5118;48.570;7.916;2023-06-22T00:53:12;10.15;;;9.15;;
10154;SDS011;5118;48.570;7.916;2023-06-22T00:55:41;10.88;;;8.65;;
10154;SDS011;5118;48.570;7.916;2023-06-22T00:58:12;10.38;;;9.30;;
10154;SDS011;5118;48.570;7.916;2023-06-22T01:00:41;11.48;;;9.55;;
10154;SDS011;5118;48.570;7.916;2023-06-22T01:03:10;10.45;;;9.55;;
10154;SDS011;5118;48.570;7.916;2023-06-22T01:05:40;10.52;;;9.32;;
10154;SDS011;5118;48.570;7.916;2023-06-22T01:08:16;10.52;;;9.50;;
10154;SDS011;5118;48.570;7.916;2023-06-22T01:10:59;10.80;;;9.80;;
10154;SDS011;5118;48.570;7.916;2023-06-22T01:13:35;10.93;;;9.93;;
10154;SDS011;5118;48.570;7.916;2023-06-22T01:16:10;10.65;;;9.65;;
10154;SDS011;5118;48.570;7.916;2023-06-22T01:18:45;10.95;;;9.95;;
10154;SDS011;5118;48.570;7.916;2023-06-22T01:21:19;12.45;;;9.60;;
10154;SDS011;5118;48.570;7.916;2023-06-22T01:23:51;10.90;;;9.48;;
10154;SDS011;5118;48.570;7.916;2023-06-22T01:26:35;11.25;;;10.05;;
10154;SDS011;5118;48.570;7.916;2023-06-22T01:29:10;11.23;;;9.70;;
10154;SDS011;5118;48.570;7.916;2023-06-22T01:31:40;10.80;;;9.82;;
10154;SDS011;5118;48.570;7.916;2023-06-22T01:34:11;10.65;;;9.55;;
10154;SDS011;5118;48.570;7.916;2023-06-22T01:36:41;11.00;;;9.77;;
10154;SDS011;5118;48.570;7.916;2023-06-22T01:39:11;10.52;;;9.60;;
10154;SDS011;5118;48.570;7.916;2023-06-22T01:41:41;14.55;;;10.07;;
10154;SDS011;5118;48.570;7.916;2023-06-22T01:44:14;10.80;;;9.80;;
10154;SDS011;5118;48.570;7.916;2023-06-22T01:46:43;10.88;;;9.55;;
10154;SDS011;5118;48.570;7.916;2023-06-22T01:49:13;11.43;;;9.80;;
10154;SDS011;5118;48.570;7.916;2023-06-22T01:51:42;10.73;;;9.43;;
10154;SDS011;5118;48.570;7.916;2023-06-22T01:54:11;11.90;;;9.55;;
10154;SDS011;5118;48.570;7.916;2023-06-22T01:56:39;11.02;;;9.93;;
10154;SDS011;5118;48.570;7.916;2023-06-22T01:59:09;10.88;;;9.88;;
10154;SDS011;5118;48.570;7.916;2023-06-22T02:01:47;11.55;;;9.80;;
10154;SDS011;5118;48.570;7.916;2023-06-22T02:04:24;11.60;;;10.50;;
10154;SDS011;5118;48.570;7.916;2023-06-22T02:06:56;11.07;;;10.07;;
10154;SDS011;5118;48.570;7.916;2023-06-22T02:09:29;11.75;;;10.43;;
10154;SDS011;5118;48.570;7.916;2023-06-22T02:11:59;11.10;;;10.10;;
10154;SDS011;5118;48.570;7.916;2023-06-22T02:14:29;11.18;;;10.15;;
10154;SDS011;5118;48.570;7.916;2023-06-22T02:17:00;12.07;;;10.80;;
10154;SDS011;5118;48.570;7.916;2023-06-22T02:19:29;11.97;;;10.77;;
10154;SDS011;5118;48.570;7.916;2023-06-22T02:22:00;11.02;;;9.95;;
10154;SDS011;5118;48.570;7.916;2023-06-22T02:24:28;12.38;;;11.07;;
10154;SDS011;5118;48.570;7.916;2023-06-22T02:26:58;12.30;;;11.10;;
10154;SDS011;5118;48.570;7.916;2023-06-22T02:29:27;12.27;;;10.90;;
10154;SDS011;5118;48.570;7.916;2023-06-22T02:31:58;12.35;;;11.07;;
10154;SDS011;5118;48.570;7.916;2023-06-22T02:34:28;12.40;;;11.20;;
10154;SDS011;5118;48.570;7.916;2023-06-22T02:36:57;12.13;;;10.95;;
10154;SDS011;5118;48.570;7.916;2023-06-22T02:39:27;12.10;;;10.80;;
10154;SDS011;5118;48.570;7.916;2023-06-22T02:41:56;13.65;;;11.32;;
10154;SDS011;5118;48.570;7.916;2023-06-22T02:44:24;13.18;;;11.88;;
10154;SDS011;5118;48.570;7.916;2023-06-22T02:46:52;14.43;;;11.85;;
10154;SDS011;5118;48.570;7.916;2023-06-22T02:49:26;13.53;;;10.87;;
10154;SDS011;5118;48.570;7.916;2023-06-22T02:51:54;10.70;;;9.60;;
10154;SDS011;5118;48.570;7.916;2023-06-22T02:54:25;13.30;;;11.90;;
10154;SDS011;5118;48.570;7.916;2023-06-22T02:56:54;13.37;;;11.93;;
10154;SDS011;5118;48.570;7.916;2023-06-22T02:59:22;16.17;;;11.33;;
10154;SDS011;5118;48.570;7.916;2023-06-22T03:01:59;11.52;;;10.32;;
10154;SDS011;5118;48.570;7.916;2023-06-22T03:04:33;12.65;;;11.07;;
10154;SDS011;5118;48.570;7.916;2023-06-22T03:07:02;13.30;;;11.07;;
10154;SDS011;5118;48.570;7.916;2023-06-22T03:09:33;12.55;;;11.18;;
10154;SDS011;5118;48.570;7.916;2023-06-22T03:12:01;12.73;;;11.43;;
10154;SDS011;5118;48.570;7.916;2023-06-22T03:14:38;13.93;;;11.10;;
10154;SDS011;5118;48.570;7.916;2023-06-22T03:17:06;13.20;;;11.40;;
10154;SDS011;5118;48.570;7.916;2023-06-22T03:19:36;12.23;;;10.70;;
10154;SDS011;5118;48.570;7.916;2023-06-22T03:22:05;12.23;;;10.83;;
10154;SDS011;5118;48.570;7.916;2023-06-22T03:24:34;13.07;;;10.80;;
10154;SDS011;5118;48.570;7.916;2023-06-22T03:27:04;13.43;;;11.13;;
10154;SDS011;5118;48.570;7.916;2023-06-22T03:29:33;12.88;;;11.20;;
10154;SDS011;5118;48.570;7.916;2023-06-22T03:32:02;12.13;;;10.95;;
10154;SDS011;5118;48.570;7.916;2023-06-22T03:34:32;13.82;;;12.20;;
10154;SDS011;5118;48.570;7.916;2023-06-22T03:37:02;12.93;;;10.95;;
10154;SDS011;5118;48.570;7.916;2023-06-22T03:39:31;12.48;;;11.02;;
10154;SDS011;5118;48.570;7.916;2023-06-22T03:41:59;12.70;;;11.30;;
10154;SDS011;5118;48.570;7.916;2023-06-22T03:44:28;12.00;;;10.80;;
10154;SDS011;5118;48.570;7.916;2023-06-22T03:46:57;14.03;;;11.90;;
10154;SDS011;5118;48.570;7.916;2023-06-22T03:49:26;13.48;;;11.20;;
10154;SDS011;5118;48.570;7.916;2023-06-22T03:51:55;13.07;;;11.20;;
10154;SDS011;5118;48.570;7.916;2023-06-22T03:54:26;11.97;;;10.77;;
10154;SDS011;5118;48.570;7.916;2023-06-22T03:56:54;14.17;;;11.63;;
10154;SDS011;5118;48.570;7.916;2023-06-22T03:59:24;13.23;;;11.13;;
10154;SDS011;5118;48.570;7.916;2023-06-22T04:01:53;13.27;;;11.93;;
10154;SDS011;5118;48.570;7.916;2023-06-22T04:04:21;12.83;;;11.20;;
10154;SDS011;5118;48.570;7.916;2023-06-22T04:06:50;12.30;;;11.10;;
10154;SDS011;5118;48.570;7.916;2023-06-22T04:09:18;12.70;;;11.40;;
10154;SDS011;5118;48.570;7.916;2023-06-22T04:11:49;12.00;;;10.90;;
10154;SDS011;5118;48.570;7.916;2023-06-22T04:14:18;13.40;;;11.27;;
10154;SDS011;5118;48.570;7.916;2023-06-22T04:16:47;12.97;;;10.90;;
10154;SDS011;5118;48.570;7.916;2023-06-22T04:19:17;12.82;;;11.20;;
10154;SDS011;5118;48.570;7.916;2023-06-22T04:21:46;12.07;;;10.87;;
10154;SDS011;5118;48.570;7.916;2023-06-22T04:24:16;12.15;;;11.00;;
10154;SDS011;5118;48.570;7.916;2023-06-22T04:26:44;12.73;;;10.93;;
10154;SDS011;5118;48.570;7.916;2023-06-22T04:29:17;12.77;;;11.23;;
10154;SDS011;5118;48.570;7.916;2023-06-22T04:31:45;10.95;;;9.52;;
10154;SDS011;5118;48.570;7.916;2023-06-22T04:34:17;11.30;;;10.10;;
10154;SDS011;5118;48.570;7.916;2023-06-22T04:36:46;12.35;;;10.88;;
10154;SDS011;5118;48.570;7.916;2023-06-22T04:39:14;12.37;;;11.07;;
10154;SDS011;5118;48.570;7.916;2023-06-22T04:41:43;14.10;;;10.70;;
10154;SDS011;5118;48.570;7.916;2023-06-22T04:44:12;12.23;;;10.98;;
10154;SDS011;5118;48.570;7.916;2023-06-22T04:46:53;12.05;;;10.80;;
10154;SDS011;5118;48.570;7.916;2023-06-22T04:49:27;14.90;;;11.05;;
10154;SDS011;5118;48.570;7.916;2023-06-22T04:51:59;12.07;;;10.40;;
10154;SDS011;5118;48.570;7.916;2023-06-22T04:54:29;13.98;;;10.15;;
10154;SDS011;5118;48.570;7.916;2023-06-22T04:56:59;16.25;;;10.90;;
10154;SDS011;5118;48.570;7.916;2023-06-22T04:59:30;14.77;;;10.80;;
10154;SDS011;5118;48.570;7.916;2023-06-22T05:02:01;11.43;;;10.23;;
10154;SDS011;5118;48.570;7.916;2023-06-22T05:04:29;12.05;;;10.32;;
10154;SDS011;5118;48.570;7.916;2023-06-22T05:06:59;12.35;;;11.15;;
10154;SDS011;5118;48.570;7.916;2023-06-22T05:09:28;14.50;;;10.55;;
10154;SDS011;5118;48.570;7.916;2023-06-22T05:11:57;12.13;;;10.82;;
10154;SDS011;5118;48.570;7.916;2023-06-22T05:14:26;12.90;;;11.43;;
10154;SDS011;5118;48.570;7.916;2023-06-22T05:16:54;11.38;;;10.00;;
10154;SDS011;5118;48.570;7.916;2023-06-22T05:19:26;11.50;;;9.80;;
10154;SDS011;5118;48.570;7.916;2023-06-22T05:21:58;11.77;;;9.68;;
10154;SDS011;5118;48.570;7.916;2023-06-22T05:24:26;10.68;;;9.68;;
10154;SDS011;5118;48.570;7.916;2023-06-22T05:26:55;11.18;;;9.98;;
10154;SDS011;5118;48.570;7.916;2023-06-22T05:29:23;11.05;;;9.95;;
10154;SDS011;5118;48.570;7.916;2023-06-22T05:31:53;11.82;;;9.60;;
10154;SDS011;5118;48.570;7.916;2023-06-22T05:34:21;11.35;;;10.00;;
10154;SDS011;5118;48.570;7.916;2023-06-22T05:36:51;10.60;;;9.45;;
10154;SDS011;5118;48.570;7.916;2023-06-22T05:39:20;11.23;;;10.02;;
10154;SDS011;5118;48.570;7.916;2023-06-22T05:41:48;11.27;;;9.48;;
10154;SDS011;5118;48.570;7.916;2023-06-22T05:44:17;12.05;;;9.80;;
10154;SDS011;5118;48.570;7.916;2023-06-22T05:46:47;10.77;;;9.68;;
10154;SDS011;5118;48.570;7.916;2023-06-22T05:49:15;10.35;;;9.32;;
10154;SDS011;5118;48.570;7.916;2023-06-22T05:51:44;10.82;;;9.35;;
10154;SDS011;5118;48.570;7.916;2023-06-22T05:54:13;10.95;;;9.20;;
10154;SDS011;5118;48.570;7.916;2023-06-22T05:56:44;9.95;;;9.07;;
10154;SDS011;5118;48.570;7.916;2023-06-22T05:59:13;12.50;;;9.40;;
10154;SDS011;5118;48.570;7.916;2023-06-22T06:01:42;9.95;;;8.95;;
10154;SDS011;5118;48.570;7.916;2023-06-22T06:04:10;9.88;;;8.88;;
10154;SDS011;5118;48.570;7.916;2023-06-22T06:06:39;8.90;;;7.93;;
10154;SDS011;5118;48.570;7.916;2023-06-22T06:09:07;10.48;;;9.40;;
10154;SDS011;5118;48.570;7.916;2023-06-22T06:11:39;10.60;;;9.60;;
10154;SDS011;5118;48.570;7.916;2023-06-22T06:14:08;10.52;;;9.43;;
10154;SDS011;5118;48.570;7.916;2023-06-22T06:16:38;12.35;;;9.20;;
10154;SDS011;5118;48.570;7.916;2023-06-22T06:19:07;10.38;;;9.25;;
10154;SDS011;5118;48.570;7.916;2023-06-22T06:21:35;10.63;;;9.32;;
10154;SDS011;5118;48.570;7.916;2023-06-22T06:24:04;9.82;;;8.70;;
10154;SDS011;5118;48.570;7.916;2023-06-22T06:26:32;12.40;;;8.95;;
10154;SDS011;5118;48.570;7.916;2023-06-22T06:29:03;11.32;;;8.80;;
10154;SDS011;5118;48.570;7.916;2023-06-22T06:31:31;9.88;;;8.90;;
10154;SDS011;5118;48.570;7.916;2023-06-22T06:34:00;10.30;;;8.82;;
10154;SDS011;5118;48.570;7.916;2023-06-22T06:36:28;9.10;;;8.10;;
10154;SDS011;5118;48.570;7.916;2023-06-22T06:38:57;12.20;;;8.95;;
10154;SDS011;5118;48.570;7.916;2023-06-22T06:41:25;9.10;;;8.20;;
10154;SDS011;5118;48.570;7.916;2023-06-22T06:43:53;10.63;;;8.73;;
10154;SDS011;5118;48.570;7.916;2023-06-22T06:46:23;11.30;;;8.63;;
10154;SDS011;5118;48.570;7.916;2023-06-22T06:48:52;8.98;;;7.85;;
10154;SDS011;5118;48.570;7.916;2023-06-22T06:51:20;9.88;;;8.45;;
10154;SDS011;5118;48.570;7.916;2023-06-22T06:53:49;10.65;;;8.80;;
10154;SDS011;5118;48.570;7.916;2023-06-22T06:56:17;10.45;;;8.38;;
10154;SDS011;5118;48.570;7.916;2023-06-22T06:58:46;13.05;;;8.10;;
10154;SDS011;5118;48.570;7.916;2023-06-22T07:01:15;9.40;;;8.30;;
10154;SDS011;5118;48.570;7.916;2023-06-22T07:03:48;11.60;;;8.57;;
10154;SDS011;5118;48.570;7.916;2023-06-22T07:06:17;12.13;;;8.85;;
10154;SDS011;5118;48.570;7.916;2023-06-22T07:08:45;9.90;;;8.35;;
10154;SDS011;5118;48.570;7.916;2023-06-22T07:11:13;10.13;;;9.13;;
10154;SDS011;5118;48.570;7.916;2023-06-22T07:13:42;11.45;;;8.25;;
10154;SDS011;5118;48.570;7.916;2023-06-22T07:16:10;10.18;;;8.70;;
10154;SDS011;5118;48.570;7.916;2023-06-22T07:18:39;9.10;;;8.20;;
10154;SDS011;5118;48.570;7.916;2023-06-22T07:21:09;10.57;;;8.32;;
10154;SDS011;5118;48.570;7.916;2023-06-22T07:23:37;10.02;;;8.30;;
10154;SDS011;5118;48.570;7.916;2023-06-22T07:26:06;12.13;;;8.20;;
10154;SDS011;5118;48.570;7.916;2023-06-22T07:28:35;9.82;;;8.73;;
10154;SDS011;5118;48.570;7.916;2023-06-22T07:31:04;9.48;;;8.50;;
10154;SDS011;5118;48.570;7.916;2023-06-22T07:33:33;12.57;;;8.88;;
10154;SDS011;5118;48.570;7.916;2023-06-22T07:36:01;11.55;;;9.30;;
10154;SDS011;5118;48.570;7.916;2023-06-22T07:38:36;10.25;;;9.25;;
10154;SDS011;5118;48.570;7.916;2023-06-22T07:41:04;11.70;;;10.20;;
10154;SDS011;5118;48.570;7.916;2023-06-22T07:43:33;10.88;;;9.70;;
10154;SDS011;5118;48.570;7.916;2023-06-22T07:46:03;12.45;;;10.93;;
10154;SDS011;5118;48.570;7.916;2023-06-22T07:48:32;13.07;;;9.98;;
10154;SDS011;5118;48.570;7.916;2023-06-22T07:51:04;12.70;;;10.25;;
10154;SDS011;5118;48.570;7.916;2023-06-22T07:53:33;11.15;;;8.82;;
10154;SDS011;5118;48.570;7.916;2023-06-22T07:56:03;11.60;;;8.73;;
10154;SDS011;5118;48.570;7.916;2023-06-22T07:58:33;13.43;;;10.00;;
10154;SDS011;5118;48.570;7.916;2023-06-22T08:01:02;12.57;;;9.93;;
10154;SDS011;5118;48.570;7.916;2023-06-22T08:03:30;12.15;;;10.95;;
10154;SDS011;5118;48.570;7.916;2023-06-22T08:05:59;11.68;;;10.43;;
10154;SDS011;5118;48.570;7.916;2023-06-22T08:08:28;10.85;;;9.73;;
10154;SDS011;5118;48.570;7.916;2023-06-22T08:10:58;12.68;;;9.75;;
10154;SDS011;5118;48.570;7.916;2023-06-22T08:13:26;11.13;;;9.80;;
10154;SDS011;5118;48.570;7.916;2023-06-22T08:15:55;12.32;;;11.23;;
10154;SDS011;5118;48.570;7.916;2023-06-22T08:18:26;12.85;;;10.45;;
10154;SDS011;5118;48.570;7.916;2023-06-22T08:20:55;13.73;;;10.98;;
10154;SDS011;5118;48.570;7.916;2023-06-22T08:23:23;13.32;;;10.75;;
10154;SDS011;5118;48.570;7.916;2023-06-22T08:25:52;11.30;;;10.00;;
10154;SDS011;5118;48.570;7.916;2023-06-22T08:28:22;13.40;;;10.57;;
10154;SDS011;5118;48.570;7.916;2023-06-22T08:30:50;12.93;;;11.52;;
10154;SDS011;5118;48.570;7.916;2023-06-22T08:33:19;12.88;;;11.60;;
10154;SDS011;5118;48.570;7.916;2023-06-22T08:35:54;13.43;;;12.13;;
10154;SDS011;5118;48.570;7.916;2023-06-22T08:38:22;13.82;;;12.45;;
10154;SDS011;5118;48.570;7.916;2023-06-22T08:40:51;13.45;;;12.15;;
10154;SDS011;5118;48.570;7.916;2023-06-22T08:43:21;14.02;;;12.35;;
10154;SDS011;5118;48.570;7.916;2023-06-22T08:45:50;11.43;;;10.30;;
10154;SDS011;5118;48.570;7.916;2023-06-22T08:48:18;15.65;;;12.73;;
10154;SDS011;5118;48.570;7.916;2023-06-22T08:50:47;13.05;;;11.77;;
10154;SDS011;5118;48.570;7.916;2023-06-22T08:53:16;14.05;;;12.65;;
10154;SDS011;5118;48.570;7.916;2023-06-22T08:55:45;11.48;;;10.27;;
10154;SDS011;5118;48.570;7.916;2023-06-22T08:58:13;12.95;;;11.10;;
10154;SDS011;5118;48.570;7.916;2023-06-22T09:00:43;10.90;;;9.38;;
10154;SDS011;5118;48.570;7.916;2023-06-22T09:03:11;14.90;;;10.15;;
10154;SDS011;5118;48.570;7.916;2023-06-22T09:05:40;10.75;;;9.75;;
10154;SDS011;5118;48.570;7.916;2023-06-22T09:08:08;13.50;;;10.57;;
10154;SDS011;5118;48.570;7.916;2023-06-22T09:10:38;11.55;;;9.10;;
10154;SDS011;5118;48.570;7.916;2023-06-22T09:13:07;12.88;;;9.35;;
10154;SDS011;5118;48.570;7.916;2023-06-22T09:15:36;10.25;;;9.25;;
10154;SDS011;5118;48.570;7.916;2023-06-22T09:18:06;10.50;;;9.50;;
10154;SDS011;5118;48.570;7.916;2023-06-22T09:20:34;13.57;;;10.20;;
10154;SDS011;5118;48.570;7.916;2023-06-22T09:23:02;13.25;;;9.30;;
10154;SDS011;5118;48.570;7.916;2023-06-22T09:25:31;12.32;;;9.63;;
10154;SDS011;5118;48.570;7.916;2023-06-22T09:27:59;14.40;;;10.52;;
10154;SDS011;5118;48.570;7.916;2023-06-22T09:30:28;11.55;;;10.20;;
10154;SDS011;5118;48.570;7.916;2023-06-22T09:32:57;11.02;;;9.10;;
10154;SDS011;5118;48.570;7.916;2023-06-22T09:35:29;11.55;;;7.88;;
10154;SDS011;5118;48.570;7.916;2023-06-22T09:37:57;11.68;;;8.07;;
10154;SDS011;5118;48.570;7.916;2023-06-22T09:40:26;9.00;;;8.02;;
10154;SDS011;5118;48.570;7.916;2023-06-22T09:42:54;13.02;;;8.02;;
10154;SDS011;5118;48.570;7.916;2023-06-22T09:45:23;8.88;;;7.90;;
10154;SDS011;5118;48.570;7.916;2023-06-22T09:47:51;12.23;;;7.38;;
10154;SDS011;5118;48.570;7.916;2023-06-22T09:50:20;10.13;;;7.53;;
10154;SDS011;5118;48.570;7.916;2023-06-22T09:52:49;12.40;;;8.15;;
10154;SDS011;5118;48.570;7.916;2023-06-22T09:55:21;8.57;;;7.68;;
10154;SDS011;5118;48.570;7.916;2023-06-22T09:57:50;10.70;;;7.43;;
10154;SDS011;5118;48.570;7.916;2023-06-22T10:00:18;11.13;;;8.43;;
10154;SDS011;5118;48.570;7.916;2023-06-22T10:02:48;10.73;;;8.30;;
10154;SDS011;5118;48.570;7.916;2023-06-22T10:05:17;11.93;;;7.80;;
10154;SDS011;5118;48.570;7.916;2023-06-22T10:07:46;11.77;;;8.63;;
10154;SDS011;5118;48.570;7.916;2023-06-22T10:10:16;9.93;;;8.27;;
10154;SDS011;5118;48.570;7.916;2023-06-22T10:12:45;8.45;;;7.65;;
10154;SDS011;5118;48.570;7.916;2023-06-22T10:15:14;8.00;;;7.22;;
10154;SDS011;5118;48.570;7.916;2023-06-22T10:17:43;9.75;;;7.93;;
10154;SDS011;5118;48.570;7.916;2023-06-22T10:20:12;11.80;;;8.15;;
10154;SDS011;5118;48.570;7.916;2023-06-22T10:22:42;9.63;;;8.23;;
10154;SDS011;5118;48.570;7.916;2023-06-22T10:25:12;7.50;;;6.55;;
10154;SDS011;5118;48.570;7.916;2023-06-22T10:27:42;11.27;;;8.88;;
10154;SDS011;5118;48.570;7.916;2023-06-22T10:30:11;9.20;;;7.18;;
10154;SDS011;5118;48.570;7.916;2023-06-22T10:32:41;9.60;;;7.55;;
10154;SDS011;5118;48.570;7.916;2023-06-22T10:35:11;7.75;;;6.95;;
10154;SDS011;5118;48.570;7.916;2023-06-22T10:37:42;9.35;;;7.85;;
10154;SDS011;5118;48.570;7.916;2023-06-22T10:40:11;9.93;;;8.00;;
10154;SDS011;5118;48.570;7.916;2023-06-22T10:42:44;10.80;;;7.75;;
10154;SDS011;5118;48.570;7.916;2023-06-22T10:45:12;14.10;;;7.00;;
10154;SDS011;5118;48.570;7.916;2023-06-22T10:47:41;7.10;;;6.50;;
10154;SDS011;5118;48.570;7.916;2023-06-22T10:50:10;9.07;;;7.18;;
10154;SDS011;5118;48.570;7.916;2023-06-22T10:52:39;9.57;;;7.28;;
10154;SDS011;5118;48.570;7.916;2023-06-22T10:55:08;8.30;;;7.35;;
10154;SDS011;5118;48.570;7.916;2023-06-22T10:57:37;13.13;;;6.30;;
10154;SDS011;5118;48.570;7.916;2023-06-22T11:00:12;9.23;;;7.70;;
10154;SDS011;5118;48.570;7.916;2023-06-22T11:02:42;7.30;;;6.30;;
10154;SDS011;5118;48.570;7.916;2023-06-22T11:05:14;8.15;;;7.03;;
10154;SDS011;5118;48.570;7.916;2023-06-22T11:07:42;10.63;;;7.30;;
10154;SDS011;5118;48.570;7.916;2023-06-22T11:10:13;10.38;;;6.60;;
10154;SDS011;5118;48.570;7.916;2023-06-22T11:12:41;7.80;;;6.82;;
10154;SDS011;5118;48.570;7.916;2023-06-22T11:15:11;9.13;;;7.63;;
10154;SDS011;5118;48.570;7.916;2023-06-22T11:17:40;10.02;;;7.07;;
10154;SDS011;5118;48.570;7.916;2023-06-22T11:20:09;12.82;;;7.80;;
10154;SDS011;5118;48.570;7.916;2023-06-22T11:22:38;10.10;;;7.72;;
10154;SDS011;5118;48.570;7.916;2023-06-22T11:25:07;10.20;;;7.40;;
10154;SDS011;5118;48.570;7.916;2023-06-22T11:27:37;10.52;;;7.90;;
10154;SDS011;5118;48.570;7.916;2023-06-22T11:30:07;9.25;;;7.15;;
10154;SDS011;5118;48.570;7.916;2023-06-22T11:32:37;9.07;;;7.80;;
10154;SDS011;5118;48.570;7.916;2023-06-22T11:35:06;12.32;;;8.60;;
10154;SDS011;5118;48.570;7.916;2023-06-22T11:37:35;11.70;;;7.80;;
10154;SDS011;5118;48.570;7.916;2023-06-22T11:40:04;9.10;;;7.00;;
10154;SDS011;5118;48.570;7.916;2023-06-22T11:42:36;12.10;;;7.15;;
10154;SDS011;5118;48.570;7.916;2023-06-22T11:45:05;10.98;;;7.45;;
10154;SDS011;5118;48.570;7.916;2023-06-22T11:47:34;10.35;;;6.47;;
10154;SDS011;5118;48.570;7.916;2023-06-22T11:50:05;10.82;;;7.00;;
10154;SDS011;5118;48.570;7.916;2023-06-22T11:52:34;8.65;;;7.13;;
10154;SDS011;5118;48.570;7.916;2023-06-22T11:55:04;10.18;;;6.45;;
10154;SDS011;5118;48.570;7.916;2023-06-22T11:57:33;12.48;;;6.78;;
10154;SDS011;5118;48.570;7.916;2023-06-22T12:00:03;13.27;;;7.65;;
10154;SDS011;5118;48.570;7.916;2023-06-22T12:02:41;11.50;;;6.78;;
10154;SDS011;5118;48.570;7.916;2023-06-22T12:05:11;10.00;;;7.03;;
10154;SDS011;5118;48.570;7.916;2023-06-22T12:07:40;11.40;;;7.00;;
10154;SDS011;5118;48.570;7.916;2023-06-22T12:10:08;10.15;;;6.72;;
10154;SDS011;5118;48.570;7.916;2023-06-22T12:12:37;11.75;;;7.30;;
10154;SDS011;5118;48.570;7.916;2023-06-22T12:15:06;7.93;;;7.20;;
10154;SDS011;5118;48.570;7.916;2023-06-22T12:17:35;11.32;;;7.30;;
10154;SDS011;5118;48.570;7.916;2023-06-22T12:20:04;10.77;;;6.75;;
10154;SDS011;5118;48.570;7.916;2023-06-22T12:22:36;7.97;;;5.78;;
10154;SDS011;5118;48.570;7.916;2023-06-22T12:25:05;10.50;;;6.90;;
10154;SDS011;5118;48.570;7.916;2023-06-22T12:27:34;8.95;;;6.10;;
10154;SDS011;5118;48.570;7.916;2023-06-22T12:30:03;11.73;;;6.43;;
10154;SDS011;5118;48.570;7.916;2023-06-22T12:32:33;13.00;;;6.43;;
10154;SDS011;5118;48.570;7.916;2023-06-22T12:35:02;10.35;;;6.40;;
10154;SDS011;5118;48.570;7.916;2023-06-22T12:37:31;10.35;;;6.35;;
10154;SDS011;5118;48.570;7.916;2023-06-22T12:40:04;11.98;;;7.20;;
10154;SDS011;5118;48.570;7.916;2023-06-22T12:42:34;10.60;;;7.47;;
10154;SDS011;5118;48.570;7.916;2023-06-22T12:45:03;9.35;;;7.43;;
10154;SDS011;5118;48.570;7.916;2023-06-22T12:47:32;11.45;;;7.75;;
10154;SDS011;5118;48.570;7.916;2023-06-22T12:50:00;11.20;;;7.65;;
10154;SDS011;5118;48.570;7.916;2023-06-22T12:52:30;14.45;;;7.50;;
10154;SDS011;5118;48.570;7.916;2023-06-22T12:54:59;11.65;;;7.25;;
10154;SDS011;5118;48.570;7.916;2023-06-22T12:57:29;10.02;;;7.18;;
10154;SDS011;5118;48.570;7.916;2023-06-22T12:59:57;9.73;;;7.00;;
10154;SDS011;5118;48.570;7.916;2023-06-22T13:02:28;9.50;;;6.82;;
10154;SDS011;5118;48.570;7.916;2023-06-22T13:04:56;11.30;;;7.43;;
10154;SDS011;5118;48.570;7.916;2023-06-22T13:07:24;10.98;;;7.82;;
10154;SDS011;5118;48.570;7.916;2023-06-22T13:09:53;11.55;;;7.55;;
10154;SDS011;5118;48.570;7.916;2023-06-22T13:12:22;9.27;;;7.50;;
10154;SDS011;5118;48.570;7.916;2023-06-22T13:14:52;10.43;;;7.00;;
10154;SDS011;5118;48.570;7.916;2023-06-22T13:17:20;8.35;;;7.10;;
10154;SDS011;5118;48.570;7.916;2023-06-22T13:19:49;12.73;;;7.70;;
10154;SDS011;5118;48.570;7.916;2023-06-22T13:22:28;8.73;;;7.40;;
10154;SDS011;5118;48.570;7.916;2023-06-22T13:24:57;12.82;;;7.30;;
10154;SDS011;5118;48.570;7.916;2023-06-22T13:27:26;11.15;;;6.95;;
10154;SDS011;5118;48.570;7.916;2023-06-22T13:29:56;15.25;;;7.25;;
10154;SDS011;5118;48.570;7.916;2023-06-22T13:32:25;12.45;;;6.57;;
10154;SDS011;5118;48.570;7.916;2023-06-22T13:34:53;13.32;;;7.70;;
10154;SDS011;5118;48.570;7.916;2023-06-22T13:37:21;11.52;;;6.80;;
10154;SDS011;5118;48.570;7.916;2023-06-22T13:39:50;9.90;;;6.72;;
10154;SDS011;5118;48.570;7.916;2023-06-22T13:42:19;8.23;;;6.50;;
10154;SDS011;5118;48.570;7.916;2023-06-22T13:44:47;10.52;;;7.05;;
10154;SDS011;5118;48.570;7.916;2023-06-22T13:47:17;10.95;;;7.55;;
10154;SDS011;5118;48.570;7.916;2023-06-22T13:49:46;10.35;;;6.55;;
10154;SDS011;5118;48.570;7.916;2023-06-22T13:52:14;9.52;;;6.68;;
10154;SDS011;5118;48.570;7.916;2023-06-22T13:54:43;9.43;;;6.53;;
10154;SDS011;5118;48.570;7.916;2023-06-22T13:57:11;9.80;;;6.60;;
10154;SDS011;5118;48.570;7.916;2023-06-22T13:59:39;13.38;;;7.05;;
10154;SDS011;5118;48.570;7.916;2023-06-22T14:02:08;11.57;;;6.57;;
10154;SDS011;5118;48.570;7.916;2023-06-22T14:04:38;8.77;;;6.80;;
10154;SDS011;5118;48.570;7.916;2023-06-22T14:07:06;8.77;;;7.03;;
10154;SDS011;5118;48.570;7.916;2023-06-22T14:09:35;9.32;;;7.22;;
10154;SDS011;5118;48.570;7.916;2023-06-22T14:12:03;12.32;;;7.07;;
10154;SDS011;5118;48.570;7.916;2023-06-22T14:14:33;10.95;;;6.70;;
10154;SDS011;5118;48.570;7.916;2023-06-22T14:17:01;10.70;;;6.68;;
10154;SDS011;5118;48.570;7.916;2023-06-22T14:19:30;9.88;;;6.38;;
10154;SDS011;5118;48.570;7.916;2023-06-22T14:22:01;12.50;;;7.47;;
10154;SDS011;5118;48.570;7.916;2023-06-22T14:24:29;10.93;;;6.80;;
10154;SDS011;5118;48.570;7.916;2023-06-22T14:26:58;11.55;;;7.05;;
10154;SDS011;5118;48.570;7.916;2023-06-22T14:29:29;10.80;;;6.32;;
10154;SDS011;5118;48.570;7.916;2023-06-22T14:31:57;9.40;;;6.72;;
10154;SDS011;5118;48.570;7.916;2023-06-22T14:34:26;9.45;;;6.30;;
10154;SDS011;5118;48.570;7.916;2023-06-22T14:36:55;9.70;;;6.95;;
10154;SDS011;5118;48.570;7.916;2023-06-22T14:39:25;14.57;;;6.90;;
10154;SDS011;5118;48.570;7.916;2023-06-22T14:41:53;11.23;;;6.20;;
10154;SDS011;5118;48.570;7.916;2023-06-22T14:44:22;12.45;;;5.80;;
10154;SDS011;5118;48.570;7.916;2023-06-22T14:46:50;10.18;;;5.78;;
10154;SDS011;5118;48.570;7.916;2023-06-22T14:49:19;12.05;;;5.90;;
10154;SDS011;5118;48.570;7.916;2023-06-22T14:51:48;9.85;;;5.57;;
10154;SDS011;5118;48.570;7.916;2023-06-22T14:54:16;14.05;;;5.82;;
10154;SDS011;5118;48.570;7.916;2023-06-22T14:56:47;14.35;;;5.72;;
10154;SDS011;5118;48.570;7.916;2023-06-22T14:59:15;10.90;;;5.82;;